Time;durP1;ratioP1;P1;durP2;ratioP2;P2;SDS_P1;SDS_P2;PMS_P1;PMS_P2;Temp;Humidity;BMP_temperature;BMP_pressure;BME280_temperature;BME280_humidity;BME280_pressure;Samples;Min_cycle;Max_cycle;Signal;HPM_P1;HPM_P2
2022/08/08 00:01:36;;;;;;;2.87;2.73;;;20.80;54.90;;;;;;10501646;28;20220;-78
2022/08/08 00:06:46;;;;;;;3.23;3.03;;;20.80;54.10;;;;;;10528436;28;20188;-79
2022/08/08 00:11:57;;;;;;;2.80;2.70;;;20.70;54.30;;;;;;10534873;28;20235;-79
2022/08/08 00:17:08;;;;;;;2.97;2.77;;;20.70;55.30;;;;;;10523268;28;20200;-80
2022/08/08 00:22:16;;;;;;;3.23;2.97;;;20.70;54.80;;;;;;10534180;28;20223;-80
2022/08/08 00:27:20;;;;;;;2.93;2.83;;;20.60;55.60;;;;;;10487452;28;20693;-79
2022/08/08 00:32:28;;;;;;;3.20;3.00;;;20.60;55.20;;;;;;10510991;28;20222;-79
2022/08/08 00:37:42;;;;;;;3.00;2.80;;;20.70;55.10;;;;;;10525492;28;20204;-80
2022/08/08 00:43:22;;;;;;;2.97;2.83;;;20.60;56.20;;;;;;10509111;28;20257;-80
2022/08/08 00:49:14;;;;;;;3.20;3.10;;;20.50;55.60;;;;;;10536944;28;20263;-79
2022/08/08 00:55:02;;;;;;;3.20;3.00;;;20.50;55.80;;;;;;10478344;28;20270;-80
2022/08/08 01:00:09;;;;;;;3.17;3.07;;;20.50;55.60;;;;;;10502261;28;20230;-78
2022/08/08 01:05:57;;;;;;;3.17;2.97;;;20.40;55.90;;;;;;10524312;28;20200;-77
2022/08/08 01:12:03;;;;;;;3.10;3.00;;;20.40;55.40;;;;;;10519952;28;20232;-79
2022/08/08 01:17:55;;;;;;;3.03;2.93;;;20.40;56.50;;;;;;10337428;28;20730;-79
2022/08/08 01:23:50;;;;;;;3.10;3.00;;;20.40;55.60;;;;;;10515563;28;20329;-79
2022/08/08 01:29:29;;;;;;;4.27;3.10;;;20.30;56.30;;;;;;10323351;28;20211;-78
2022/08/08 01:35:20;;;;;;;3.20;3.10;;;20.30;56.80;;;;;;10462333;28;20219;-79
2022/08/08 01:40:33;;;;;;;3.10;3.00;;;20.30;56.50;;;;;;10491337;28;20216;-79
2022/08/08 01:45:52;;;;;;;4.30;3.40;;;20.20;56.70;;;;;;10499675;28;20565;-79
2022/08/08 01:51:12;;;;;;;3.40;3.20;;;20.30;56.10;;;;;;10518139;28;20341;-79
2022/08/08 01:56:24;;;;;;;3.40;3.20;;;20.20;56.00;;;;;;10478222;28;20220;-79
2022/08/08 02:01:52;;;;;;;2.87;2.77;;;20.20;56.10;;;;;;10496421;28;20739;-79
2022/08/08 02:07:01;;;;;;;4.03;3.53;;;20.10;57.10;;;;;;10481611;28;20204;-79
2022/08/08 02:12:14;;;;;;;3.40;3.10;;;20.10;57.00;;;;;;10496230;28;20238;-79
2022/08/08 02:17:24;;;;;;;3.40;3.20;;;20.10;56.70;;;;;;10470593;28;20230;-79
2022/08/08 02:22:40;;;;;;;4.53;3.40;;;20.10;57.40;;;;;;10512298;28;20224;-79
2022/08/08 02:27:49;;;;;;;3.03;2.83;;;20.10;56.80;;;;;;10501103;28;20227;-79
2022/08/08 02:33:39;;;;;;;3.20;3.10;;;20.00;56.40;;;;;;10507065;28;20216;-79
2022/08/08 02:38:55;;;;;;;3.67;3.47;;;19.90;56.50;;;;;;10525035;28;20299;-79
2022/08/08 02:44:42;;;;;;;4.17;3.13;;;19.90;57.20;;;;;;10489845;28;20215;-78
2022/08/08 02:50:27;;;;;;;3.50;3.30;;;19.80;57.60;;;;;;10405816;28;20231;-79
2022/08/08 02:56:20;;;;;;;3.57;3.40;;;19.80;57.30;;;;;;10503170;28;20227;-79
2022/08/08 03:01:54;;;;;;;3.27;3.07;;;19.70;57.60;;;;;;10481533;28;20226;-80
2022/08/08 03:07:37;;;;;;;3.60;3.30;;;19.70;58.30;;;;;;10491262;28;20220;-79
2022/08/08 03:13:12;;;;;;;3.20;3.10;;;19.70;57.00;;;;;;10503824;28;20220;-79
2022/08/08 03:18:20;;;;;;;3.53;3.40;;;19.60;58.00;;;;;;10497229;28;20207;-79
2022/08/08 03:23:24;;;;;;;3.50;3.40;;;19.60;58.10;;;;;;10491409;28;20219;-79
2022/08/08 03:28:32;;;;;;;4.30;4.10;;;19.50;58.10;;;;;;10492146;28;20282;-79
2022/08/08 03:33:39;;;;;;;3.80;3.70;;;19.50;58.30;;;;;;10503208;28;20703;-79
2022/08/08 03:38:48;;;;;;;3.50;3.40;;;19.50;58.20;;;;;;10465412;28;20205;-79
2022/08/08 03:43:56;;;;;;;3.87;3.67;;;19.50;58.60;;;;;;10539974;28;20307;-78
2022/08/08 03:49:00;;;;;;;3.40;3.30;;;19.50;59.20;;;;;;10524851;28;20207;-79
2022/08/08 03:54:11;;;;;;;3.80;3.70;;;19.50;59.30;;;;;;10506472;28;20220;-80
2022/08/08 03:59:14;;;;;;;4.00;3.90;;;19.50;59.00;;;;;;10497979;28;20211;-79
2022/08/08 04:04:19;;;;;;;3.63;3.40;;;19.40;60.00;;;;;;10522336;28;20687;-78
2022/08/08 04:09:23;;;;;;;3.97;3.77;;;19.40;59.60;;;;;;10530149;28;20232;-79
2022/08/08 04:14:25;;;;;;;4.23;4.03;;;19.30;59.40;;;;;;10484471;28;20211;-79
2022/08/08 04:19:27;;;;;;;4.20;4.00;;;19.30;60.20;;;;;;10500306;28;20572;-79
2022/08/08 04:24:35;;;;;;;4.90;4.60;;;19.20;60.90;;;;;;10516390;28;20645;-79
2022/08/08 04:29:40;;;;;;;2.83;2.73;;;19.30;61.00;;;;;;10498051;28;20192;-79
2022/08/08 04:34:44;;;;;;;4.50;4.30;;;19.30;60.50;;;;;;10524713;28;20239;-78
2022/08/08 04:39:48;;;;;;;4.33;4.13;;;19.20;60.90;;;;;;10525558;28;20265;-78
2022/08/08 04:44:51;;;;;;;4.93;4.57;;;19.20;60.80;;;;;;10518366;28;20200;-80
2022/08/08 04:49:54;;;;;;;3.93;3.73;;;19.20;61.30;;;;;;10514851;28;20265;-80
2022/08/08 04:54:59;;;;;;;4.40;4.20;;;19.20;61.90;;;;;;10496770;28;20270;-79
2022/08/08 05:00:01;;;;;;;5.00;4.70;;;19.10;62.10;;;;;;10513833;28;20228;-80
2022/08/08 05:05:04;;;;;;;3.77;3.57;;;19.10;63.30;;;;;;10471707;28;20265;-78
2022/08/08 05:10:10;;;;;;;4.70;4.50;;;19.20;63.40;;;;;;10498551;28;20252;-79
2022/08/08 05:15:13;;;;;;;3.93;3.73;;;19.20;63.70;;;;;;10497407;28;20222;-77
2022/08/08 05:20:15;;;;;;;4.63;4.33;;;19.20;64.60;;;;;;10518797;28;20707;-78
2022/08/08 05:25:19;;;;;;;5.00;4.80;;;19.20;65.20;;;;;;10526568;28;20199;-79
2022/08/08 05:30:22;;;;;;;4.40;4.20;;;19.20;65.50;;;;;;10512985;28;20222;-80
2022/08/08 05:35:26;;;;;;;4.80;4.23;;;19.30;65.90;;;;;;10524662;28;20702;-79
2022/08/08 05:40:33;;;;;;;6.07;4.50;;;19.40;65.20;;;;;;10529440;28;20224;-79
2022/08/08 05:45:38;;;;;;;5.23;4.83;;;19.40;65.20;;;;;;10519309;28;20281;-79
2022/08/08 05:50:42;;;;;;;4.27;3.93;;;19.50;64.60;;;;;;10517475;28;20234;-78
2022/08/08 05:55:46;;;;;;;5.00;4.60;;;19.50;64.20;;;;;;10508104;28;20224;-78
2022/08/08 06:00:51;;;;;;;6.80;6.20;;;19.60;65.50;;;;;;10503364;28;20311;-78
2022/08/08 06:05:56;;;;;;;5.17;4.40;;;19.60;64.80;;;;;;10540651;28;20218;-77
2022/08/08 06:11:01;;;;;;;5.30;5.00;;;19.60;64.80;;;;;;10521620;28;20251;-78
2022/08/08 06:16:05;;;;;;;5.33;5.03;;;19.70;65.30;;;;;;10514961;28;20280;-78
2022/08/08 06:21:26;;;;;;;5.47;5.10;;;19.70;66.00;;;;;;10516289;28;20220;-77
2022/08/08 06:26:38;;;;;;;5.50;5.20;;;19.80;66.50;;;;;;10496190;28;20199;-77
2022/08/08 06:31:43;;;;;;;4.80;4.50;;;19.90;66.90;;;;;;10498483;28;20215;-78
2022/08/08 06:36:46;;;;;;;4.80;4.60;;;20.00;67.20;;;;;;10520481;28;20216;-78
2022/08/08 06:41:56;;;;;;;4.60;4.30;;;20.10;67.60;;;;;;10502887;28;20314;-78
2022/08/08 06:47:01;;;;;;;4.33;4.13;;;20.30;67.70;;;;;;10496302;28;20219;-77
2022/08/08 06:52:05;;;;;;;5.60;5.30;;;20.40;68.40;;;;;;10496087;28;20227;-78
2022/08/08 06:57:10;;;;;;;5.60;5.20;;;20.60;67.60;;;;;;10503092;28;20225;-77
2022/08/08 07:02:22;;;;;;;5.40;5.00;;;20.70;67.30;;;;;;10516772;28;20279;-77
2022/08/08 07:07:34;;;;;;;9.37;6.40;;;20.80;67.60;;;;;;10510481;28;20194;-78
2022/08/08 07:12:42;;;;;;;7.77;7.27;;;21.00;67.50;;;;;;10539418;22;20232;-82
2022/08/08 07:17:47;;;;;;;5.57;5.27;;;21.10;67.40;;;;;;10539770;28;20211;-84
2022/08/08 07:22:59;;;;;;;5.97;5.57;;;21.30;67.70;;;;;;10517838;28;20219;-84
2022/08/08 07:28:09;;;;;;;5.70;5.37;;;21.50;67.80;;;;;;10532962;28;20195;-83
2022/08/08 07:33:14;;;;;;;6.27;5.87;;;21.70;67.20;;;;;;10530671;28;20251;-84
2022/08/08 07:38:19;;;;;;;7.67;6.97;;;22.00;67.20;;;;;;10545744;28;20196;-84
2022/08/08 07:43:33;;;;;;;6.80;6.30;;;22.30;67.00;;;;;;10542950;28;20211;-82
2022/08/08 07:48:36;;;;;;;5.97;4.97;;;22.50;66.10;;;;;;10548832;28;20202;-82
2022/08/08 07:53:44;;;;;;;6.00;5.60;;;22.80;66.00;;;;;;10550228;28;20215;-83
2022/08/08 07:58:51;;;;;;;6.90;6.20;;;23.10;65.80;;;;;;10542029;28;20203;-84
2022/08/08 08:03:59;;;;;;;6.27;5.67;;;23.30;64.90;;;;;;10553203;28;20223;-84
2022/08/08 08:09:08;;;;;;;6.00;5.50;;;23.60;65.10;;;;;;10524423;28;20211;-84
2022/08/08 08:14:17;;;;;;;5.93;5.27;;;23.80;65.10;;;;;;10514149;28;20226;-83
2022/08/08 08:19:25;;;;;;;5.23;4.83;;;24.10;63.30;;;;;;10557635;28;20210;-83
2022/08/08 08:24:28;;;;;;;5.30;5.00;;;24.30;64.00;;;;;;10530832;28;20623;-83
2022/08/08 08:29:31;;;;;;;5.40;5.10;;;24.60;62.80;;;;;;10528721;28;20200;-83
2022/08/08 08:34:35;;;;;;;5.47;5.17;;;24.90;61.30;;;;;;10539235;28;20229;-83
2022/08/08 08:39:39;;;;;;;5.90;5.60;;;25.20;60.90;;;;;;10570043;28;20199;-84
2022/08/08 08:44:44;;;;;;;5.67;5.37;;;25.50;59.30;;;;;;10575480;28;20219;-84
2022/08/08 08:49:47;;;;;;;6.30;6.00;;;25.80;59.30;;;;;;10556690;28;20220;-83
2022/08/08 08:54:51;;;;;;;5.70;5.30;;;26.00;59.10;;;;;;10521857;28;20292;-83
2022/08/08 08:59:57;;;;;;;6.57;6.27;;;26.40;59.70;;;;;;10547598;28;20213;-83
2022/08/08 09:05:04;;;;;;;5.80;5.50;;;26.80;58.90;;;;;;10537243;28;20315;-84
2022/08/08 09:10:15;;;;;;;6.60;6.30;;;27.00;58.50;;;;;;10535778;28;20200;-84
2022/08/08 09:15:20;;;;;;;5.23;5.03;;;27.00;57.00;;;;;;10543061;28;20210;-82
2022/08/08 09:20:25;;;;;;;4.87;4.60;;;27.00;56.80;;;;;;10554255;28;20224;-84
2022/08/08 09:25:27;;;;;;;5.43;4.90;;;26.90;56.70;;;;;;10574862;28;20188;-82
2022/08/08 09:30:33;;;;;;;5.57;5.27;;;27.10;56.90;;;;;;10542323;28;20215;-82
2022/08/08 09:35:38;;;;;;;5.10;4.80;;;27.30;53.90;;;;;;10522515;28;20250;-83
2022/08/08 09:40:47;;;;;;;5.70;5.30;;;27.70;54.70;;;;;;10548244;28;20219;-84
2022/08/08 09:45:58;;;;;;;5.17;4.87;;;28.10;54.60;;;;;;10520816;28;20660;-83
2022/08/08 09:51:01;;;;;;;5.67;5.20;;;28.60;54.20;;;;;;10538269;28;20226;-82
2022/08/08 09:56:04;;;;;;;4.80;4.50;;;29.00;51.50;;;;;;10525222;28;20211;-84
2022/08/08 10:01:09;;;;;;;4.80;4.60;;;29.40;51.90;;;;;;10521961;28;20437;-84
2022/08/08 10:06:15;;;;;;;3.10;3.00;;;29.80;50.00;;;;;;10545773;28;20188;-85
2022/08/08 10:11:18;;;;;;;4.73;4.43;;;30.10;47.90;;;;;;10552997;28;20755;-84
2022/08/08 10:16:22;;;;;;;4.47;4.27;;;30.40;48.10;;;;;;10531884;28;20208;-85
2022/08/08 10:21:25;;;;;;;4.80;4.60;;;30.50;47.70;;;;;;10548059;28;20247;-86
2022/08/08 10:26:30;;;;;;;4.77;4.50;;;30.40;48.80;;;;;;10527052;28;20214;-85
2022/08/08 10:36:57;;;;;;;5.27;5.07;;;30.00;48.70;;;;;;10530801;28;20311;-85
2022/08/08 10:42:01;;;;;;;4.83;4.63;;;29.70;49.90;;;;;;10555683;28;20782;-86
2022/08/08 10:47:10;;;;;;;5.67;5.37;;;29.50;51.70;;;;;;10532838;28;20279;-85
2022/08/08 10:52:23;;;;;;;5.00;4.80;;;29.30;51.40;;;;;;10516706;28;20215;-84
2022/08/08 10:57:26;;;;;;;5.60;5.30;;;29.10;51.30;;;;;;10511760;28;20219;-85
2022/08/08 11:02:32;;;;;;;5.30;5.10;;;28.80;51.20;;;;;;10508797;28;20211;-83
2022/08/08 11:07:36;;;;;;;5.90;5.70;;;28.40;50.60;;;;;;10558120;28;20225;-82
2022/08/08 11:12:46;;;;;;;6.33;4.93;;;28.10;50.50;;;;;;10524559;28;20223;-84
2022/08/08 11:17:51;;;;;;;4.40;4.20;;;28.00;50.20;;;;;;10531138;28;20682;-83
2022/08/08 11:22:55;;;;;;;4.33;4.17;;;28.00;51.60;;;;;;10534809;28;20219;-83
2022/08/08 11:27:59;;;;;;;4.73;4.20;;;28.00;50.30;;;;;;10547715;28;20198;-82
2022/08/08 11:33:05;;;;;;;5.83;5.17;;;27.90;49.90;;;;;;10553127;28;20315;-83
2022/08/08 11:38:07;;;;;;;4.80;4.60;;;27.70;49.60;;;;;;10570214;28;20651;-82
2022/08/08 11:43:10;;;;;;;5.30;4.93;;;27.50;49.80;;;;;;10537360;28;20223;-81
2022/08/08 11:48:15;;;;;;;4.77;4.57;;;27.30;48.90;;;;;;10546408;28;20253;-80
2022/08/08 11:53:19;;;;;;;5.53;5.27;;;27.10;48.50;;;;;;10549424;28;20212;-81
2022/08/08 11:58:32;;;;;;;5.07;4.77;;;27.00;49.10;;;;;;10551367;28;20648;-83
2022/08/08 12:03:36;;;;;;;4.80;4.60;;;26.90;49.80;;;;;;10549317;28;20249;-81
2022/08/08 12:08:38;;;;;;;6.13;5.30;;;26.90;51.30;;;;;;10549138;28;20639;-81
2022/08/08 12:13:41;;;;;;;4.93;4.73;;;26.80;50.40;;;;;;10532984;28;20718;-79
2022/08/08 12:18:47;;;;;;;5.47;5.20;;;26.80;49.70;;;;;;10553766;28;20287;-81
2022/08/08 12:23:49;;;;;;;5.30;5.00;;;26.90;48.70;;;;;;10534525;28;20246;-80
2022/08/08 12:28:55;;;;;;;5.50;5.30;;;26.80;48.80;;;;;;10529468;28;20626;-80
2022/08/08 12:33:59;;;;;;;4.77;4.53;;;26.80;48.80;;;;;;10521989;28;20220;-80
2022/08/08 12:39:02;;;;;;;5.73;5.50;;;26.80;48.80;;;;;;10487897;28;20266;-81
2022/08/08 12:44:09;;;;;;;5.20;5.00;;;26.80;49.50;;;;;;10540863;28;20222;-79
2022/08/08 12:49:13;;;;;;;5.77;5.57;;;26.80;49.10;;;;;;10541050;28;20188;-81
2022/08/08 12:54:22;;;;;;;5.20;5.00;;;26.90;49.30;;;;;;10520625;28;20227;-82
2022/08/08 12:59:26;;;;;;;5.70;5.00;;;26.90;49.50;;;;;;10561524;28;20188;-80
2022/08/08 13:04:32;;;;;;;4.20;4.00;;;26.90;49.70;;;;;;10563573;28;20272;-80
2022/08/08 13:09:37;;;;;;;4.47;4.27;;;26.80;50.00;;;;;;10582100;28;20195;-81
2022/08/08 13:14:44;;;;;;;5.73;5.17;;;26.80;49.00;;;;;;10570704;22;20752;-79
2022/08/08 13:19:50;;;;;;;4.70;4.47;;;26.90;48.50;;;;;;10524269;28;20195;-79
2022/08/08 13:24:52;;;;;;;4.90;4.70;;;26.90;48.80;;;;;;10569713;28;20207;-79
2022/08/08 13:35:15;;;;;;;2.90;2.80;;;27.00;47.10;;;;;;10563102;28;20222;-79
2022/08/08 13:40:28;;;;;;;4.60;4.40;;;27.00;48.70;;;;;;10571868;28;20203;-79
2022/08/08 13:45:30;;;;;;;5.30;5.00;;;27.00;49.40;;;;;;10589529;28;20195;-79
2022/08/08 13:50:35;;;;;;;4.90;4.63;;;27.10;49.00;;;;;;10574071;28;20641;-79
2022/08/08 13:55:38;;;;;;;4.70;4.50;;;27.10;49.20;;;;;;10564989;28;20211;-81
2022/08/08 14:00:41;;;;;;;4.90;4.60;;;27.10;48.10;;;;;;10602605;28;20215;-81
2022/08/08 14:05:44;;;;;;;5.63;5.33;;;27.10;47.30;;;;;;10587502;28;20184;-79
2022/08/08 14:10:46;;;;;;;4.10;3.90;;;27.10;49.40;;;;;;10589621;28;20602;-81
2022/08/08 14:15:49;;;;;;;4.40;4.20;;;27.10;48.10;;;;;;10544710;28;20246;-79
2022/08/08 14:21:01;;;;;;;4.40;4.20;;;27.10;47.70;;;;;;10543659;28;20891;-79
2022/08/08 14:26:03;;;;;;;4.63;3.40;;;27.20;47.60;;;;;;10543841;28;20195;-79
2022/08/08 14:31:10;;;;;;;4.93;4.60;;;27.30;46.30;;;;;;10559227;28;20242;-81
2022/08/08 14:36:14;;;;;;;4.83;4.53;;;27.40;46.40;;;;;;10551984;28;20245;-79
2022/08/08 14:41:19;;;;;;;4.43;4.23;;;27.50;46.30;;;;;;10559984;28;20682;-81
2022/08/08 14:46:26;;;;;;;4.90;4.70;;;27.50;47.10;;;;;;10575916;28;20203;-79
2022/08/08 14:51:38;;;;;;;4.60;4.40;;;27.50;47.10;;;;;;10553442;28;20215;-80
2022/08/08 14:56:40;;;;;;;4.40;4.20;;;27.40;48.90;;;;;;10554336;28;20300;-80
2022/08/08 15:01:47;;;;;;;3.20;3.10;;;27.40;47.40;;;;;;10549568;28;20628;-81
2022/08/08 15:06:56;;;;;;;5.03;4.73;;;27.50;45.30;;;;;;10527336;28;20199;-80
2022/08/08 15:12:00;;;;;;;4.60;4.40;;;27.50;44.80;;;;;;10558164;28;20291;-80
2022/08/08 15:17:02;;;;;;;5.00;4.80;;;27.60;44.70;;;;;;10551379;28;20224;-80
2022/08/08 15:22:23;;;;;;;5.17;4.70;;;27.50;47.60;;;;;;10581254;28;20222;-81
2022/08/08 15:27:30;;;;;;;5.13;4.93;;;27.50;46.80;;;;;;10551710;28;20199;-80
2022/08/08 15:32:43;;;;;;;4.53;4.33;;;27.60;46.60;;;;;;10515799;28;20223;-80
2022/08/08 15:37:47;;;;;;;4.67;4.40;;;27.60;48.10;;;;;;10553622;28;20218;-81
2022/08/08 15:42:49;;;;;;;6.10;4.17;;;27.50;46.80;;;;;;10576534;28;20221;-81
2022/08/08 15:47:51;;;;;;;4.00;3.80;;;27.50;46.80;;;;;;10541611;28;20195;-80
2022/08/08 15:52:57;;;;;;;3.60;3.50;;;27.40;45.60;;;;;;10546250;28;20603;-80
2022/08/08 15:57:59;;;;;;;4.20;4.00;;;27.40;47.90;;;;;;10549106;28;20218;-80
2022/08/08 16:03:01;;;;;;;3.90;3.70;;;27.30;46.70;;;;;;10520801;28;20723;-79
2022/08/08 16:08:05;;;;;;;3.83;3.53;;;27.40;45.80;;;;;;10545834;28;20313;-80
2022/08/08 16:13:07;;;;;;;3.30;3.10;;;27.40;43.80;;;;;;10534492;28;20722;-80
2022/08/08 16:18:10;;;;;;;4.10;3.90;;;27.40;45.90;;;;;;10548095;28;20215;-80
2022/08/08 16:23:13;;;;;;;4.70;4.50;;;27.30;46.40;;;;;;10548613;28;20703;-80
2022/08/08 16:28:16;;;;;;;4.07;3.97;;;27.20;47.10;;;;;;10540063;28;20559;-79
2022/08/08 16:33:18;;;;;;;4.57;4.27;;;27.20;46.70;;;;;;10559766;28;20207;-80
2022/08/08 16:38:22;;;;;;;4.50;4.30;;;27.20;45.80;;;;;;10559329;28;20285;-82
2022/08/08 16:43:26;;;;;;;2.40;2.27;;;27.20;45.90;;;;;;10546161;28;20220;-79
2022/08/08 16:48:28;;;;;;;3.60;3.43;;;27.30;46.00;;;;;;10579239;28;20300;-78
2022/08/08 16:53:32;;;;;;;3.70;3.60;;;27.30;47.50;;;;;;10559158;28;20231;-80
2022/08/08 16:58:35;;;;;;;3.93;3.63;;;27.30;46.00;;;;;;10544505;28;20243;-79
2022/08/08 17:03:38;;;;;;;3.33;3.03;;;27.20;44.60;;;;;;10561623;28;20323;-80
2022/08/08 17:08:41;;;;;;;3.47;3.37;;;27.30;44.40;;;;;;10543003;28;20200;-80
2022/08/08 17:13:43;;;;;;;3.87;3.67;;;27.30;43.30;;;;;;10543735;28;20238;-80
2022/08/08 17:18:45;;;;;;;2.63;2.43;;;27.30;44.30;;;;;;10557748;28;20227;-80
2022/08/08 17:23:49;;;;;;;3.30;3.20;;;27.30;46.10;;;;;;10562885;28;20227;-79
2022/08/08 17:28:54;;;;;;;3.80;3.60;;;27.20;44.80;;;;;;10513241;28;20230;-79
2022/08/08 17:33:57;;;;;;;3.20;3.10;;;27.10;44.90;;;;;;10529919;28;20308;-80
2022/08/08 17:39:01;;;;;;;3.70;3.40;;;27.00;46.00;;;;;;10537420;28;20242;-80
2022/08/08 17:44:04;;;;;;;4.30;4.10;;;27.10;42.20;;;;;;10589034;28;20220;-80
2022/08/08 17:49:09;;;;;;;4.33;3.90;;;27.00;44.90;;;;;;10578503;28;20191;-80
2022/08/08 17:54:13;;;;;;;3.33;3.13;;;26.90;45.20;;;;;;10564147;28;20423;-80
2022/08/08 17:59:16;;;;;;;3.60;3.40;;;26.90;43.70;;;;;;10585949;28;20215;-80
2022/08/08 18:04:19;;;;;;;3.33;3.13;;;26.90;45.40;;;;;;10588664;28;20220;-80
2022/08/08 18:09:24;;;;;;;3.57;3.40;;;26.80;45.30;;;;;;10571973;28;20191;-80
2022/08/08 18:14:26;;;;;;;3.80;3.40;;;26.70;46.90;;;;;;10591057;28;20254;-80
2022/08/08 18:19:29;;;;;;;4.20;3.80;;;26.70;43.20;;;;;;10563109;28;20216;-80
2022/08/08 18:24:33;;;;;;;3.80;3.60;;;26.60;44.30;;;;;;10549835;28;20226;-80
2022/08/08 18:29:35;;;;;;;4.13;3.93;;;26.60;45.00;;;;;;10558156;28;20514;-80
2022/08/08 18:34:39;;;;;;;4.00;3.73;;;26.50;44.60;;;;;;10541536;28;20252;-80
2022/08/08 18:39:43;;;;;;;3.70;3.50;;;26.40;46.00;;;;;;10522888;28;20215;-80
2022/08/08 18:44:47;;;;;;;7.53;4.30;;;26.40;46.90;;;;;;10597218;28;20279;-79
2022/08/08 18:49:49;;;;;;;4.03;3.80;;;26.20;48.00;;;;;;10537658;28;20196;-79
2022/08/08 18:54:53;;;;;;;3.93;3.70;;;26.10;48.30;;;;;;10518878;28;20239;-80
2022/08/08 18:59:55;;;;;;;5.23;3.90;;;26.00;49.80;;;;;;10565105;28;20214;-80
2022/08/08 19:04:57;;;;;;;4.17;3.83;;;25.80;50.30;;;;;;10549413;28;20219;-80
2022/08/08 19:10:01;;;;;;;4.80;4.40;;;25.70;50.30;;;;;;10525921;28;20196;-79
2022/08/08 19:15:03;;;;;;;4.67;4.30;;;25.60;50.10;;;;;;10556148;22;20312;-80
2022/08/08 19:20:07;;;;;;;5.00;4.50;;;25.40;51.50;;;;;;10497225;28;20250;-80
2022/08/08 19:25:10;;;;;;;12.33;11.53;;;25.30;50.30;;;;;;10520122;28;20211;-82
2022/08/08 19:30:13;;;;;;;4.83;4.30;;;25.20;50.60;;;;;;10505266;28;20214;-83
2022/08/08 19:35:16;;;;;;;4.17;3.97;;;25.00;50.90;;;;;;10486872;28;20695;-81
2022/08/08 19:40:19;;;;;;;3.90;3.70;;;24.90;51.10;;;;;;10512962;28;20247;-83
2022/08/08 19:45:22;;;;;;;3.73;3.60;;;24.80;50.80;;;;;;10492245;28;20234;-80
2022/08/08 19:50:26;;;;;;;11.53;4.20;;;24.80;51.20;;;;;;10526937;28;20200;-81
2022/08/08 19:55:29;;;;;;;4.07;3.87;;;24.70;51.10;;;;;;10519706;28;20586;-82
2022/08/08 20:00:33;;;;;;;4.30;4.00;;;24.60;51.30;;;;;;10517351;28;20434;-79
2022/08/08 20:05:35;;;;;;;3.90;3.70;;;24.50;51.70;;;;;;10492080;28;20905;-82
2022/08/08 20:10:38;;;;;;;5.20;4.70;;;24.40;51.30;;;;;;10500995;28;20267;-83
2022/08/08 20:15:41;;;;;;;3.73;3.53;;;24.30;52.00;;;;;;10525796;28;20208;-80
2022/08/08 20:20:43;;;;;;;3.90;3.70;;;24.20;52.40;;;;;;10497184;28;20232;-83
2022/08/08 20:25:46;;;;;;;3.63;3.43;;;24.20;52.30;;;;;;10524672;28;20220;-81
2022/08/08 20:30:48;;;;;;;4.20;3.23;;;24.20;52.40;;;;;;10507170;28;20195;-81
2022/08/08 20:35:52;;;;;;;3.80;3.60;;;24.00;52.40;;;;;;10522782;28;20201;-82
2022/08/08 20:40:56;;;;;;;3.50;3.40;;;24.00;51.90;;;;;;10508791;28;20220;-80
2022/08/08 20:45:58;;;;;;;4.73;4.33;;;23.90;52.00;;;;;;10501407;28;20247;-79
2022/08/08 20:51:00;;;;;;;3.87;3.67;;;23.80;52.70;;;;;;10506380;28;20216;-82
2022/08/08 20:56:04;;;;;;;4.70;4.50;;;23.80;52.00;;;;;;10502603;28;20214;-83
2022/08/08 21:01:06;;;;;;;4.10;3.90;;;23.70;52.10;;;;;;10517982;28;20224;-83
2022/08/08 21:06:08;;;;;;;5.33;4.27;;;23.60;52.40;;;;;;10500052;28;20204;-82
2022/08/08 21:11:12;;;;;;;4.97;4.57;;;23.60;52.70;;;;;;10526284;28;20228;-83
2022/08/08 21:16:14;;;;;;;4.70;4.43;;;23.50;53.30;;;;;;10538146;28;20229;-81
2022/08/08 21:21:18;;;;;;;3.93;3.83;;;23.50;53.20;;;;;;10493112;28;20304;-81
2022/08/08 21:26:21;;;;;;;4.90;4.60;;;23.40;53.10;;;;;;10519462;28;20227;-82
2022/08/08 21:31:24;;;;;;;4.97;4.03;;;23.40;52.90;;;;;;10522258;28;20230;-81
2022/08/08 21:36:28;;;;;;;4.40;4.20;;;23.30;53.40;;;;;;10521218;28;20209;-82
2022/08/08 21:41:32;;;;;;;4.13;3.93;;;23.20;53.20;;;;;;10515147;28;20223;-81
2022/08/08 21:46:34;;;;;;;4.17;3.97;;;23.10;53.90;;;;;;10515731;28;20200;-79
2022/08/08 21:51:37;;;;;;;4.03;3.80;;;23.10;53.70;;;;;;10487095;28;20236;-80
2022/08/08 21:56:41;;;;;;;6.90;4.47;;;23.00;53.60;;;;;;10516794;28;20235;-81
2022/08/08 22:01:43;;;;;;;4.20;4.00;;;23.00;53.20;;;;;;10506643;28;20224;-81
2022/08/08 22:06:45;;;;;;;4.13;3.93;;;22.90;55.00;;;;;;10493451;28;20287;-80
2022/08/08 22:11:49;;;;;;;4.67;4.47;;;22.90;53.80;;;;;;10542338;28;20232;-81
2022/08/08 22:16:51;;;;;;;3.80;3.70;;;22.90;54.20;;;;;;10540017;28;20308;-79
2022/08/08 22:21:53;;;;;;;5.13;4.83;;;22.90;54.10;;;;;;10503266;28;20291;-80
2022/08/08 22:26:56;;;;;;;4.37;4.07;;;22.80;54.40;;;;;;10522076;28;20192;-79
2022/08/08 22:31:59;;;;;;;4.10;4.00;;;22.70;54.90;;;;;;10532514;28;20327;-81
2022/08/08 22:37:01;;;;;;;4.70;4.30;;;22.70;54.60;;;;;;10527142;28;20208;-81
2022/08/08 22:42:08;;;;;;;4.23;4.03;;;22.60;54.70;;;;;;10544526;28;20699;-82
2022/08/08 22:47:11;;;;;;;5.03;3.93;;;22.60;54.60;;;;;;10534089;28;20220;-80
2022/08/08 22:52:13;;;;;;;4.73;4.43;;;22.50;55.00;;;;;;10479302;28;20230;-81
2022/08/08 22:57:16;;;;;;;4.20;4.10;;;22.40;54.90;;;;;;10522117;28;20266;-80
2022/08/08 23:02:19;;;;;;;4.40;4.20;;;22.30;55.10;;;;;;10498834;28;20253;-82
2022/08/08 23:07:21;;;;;;;3.87;3.63;;;22.30;55.30;;;;;;10518200;28;20230;-82
2022/08/08 23:12:26;;;;;;;4.07;3.93;;;22.20;56.10;;;;;;10511917;28;20286;-83
2022/08/08 23:17:28;;;;;;;3.93;3.63;;;22.20;56.60;;;;;;10518284;28;20230;-82
2022/08/08 23:22:30;;;;;;;3.80;3.70;;;22.20;56.20;;;;;;10498877;28;20625;-82
2022/08/08 23:27:34;;;;;;;4.50;4.23;;;22.20;56.00;;;;;;10496563;28;20303;-82
2022/08/08 23:32:36;;;;;;;3.40;3.30;;;22.10;56.00;;;;;;10508250;28;20243;-83
2022/08/08 23:37:39;;;;;;;3.90;3.70;;;22.10;56.40;;;;;;10511262;28;20200;-83
2022/08/08 23:42:42;;;;;;;3.53;3.40;;;22.10;55.60;;;;;;10509655;28;20280;-83
2022/08/08 23:47:44;;;;;;;4.27;4.00;;;22.10;55.50;;;;;;10501122;28;20729;-83
2022/08/08 23:52:52;;;;;;;3.50;3.30;;;22.00;55.90;;;;;;10510370;28;20228;-82
2022/08/08 23:57:56;;;;;;;3.60;3.40;;;22.00;56.40;;;;;;10491080;28;20268;-83
